sensor_id;sensor_type;location;lat;lon;timestamp;P1;durP1;ratioP1;P2;durP2;ratioP2
13731;SDS011;6937;56.096;12.664;2023-12-20T00:00:51;12.23;;;2.53;;
13731;SDS011;6937;56.096;12.664;2023-12-20T00:03:16;14.10;;;2.65;;
13731;SDS011;6937;56.096;12.664;2023-12-20T00:05:42;16.75;;;2.92;;
13731;SDS011;6937;56.096;12.664;2023-12-20T00:08:07;16.38;;;3.20;;
13731;SDS011;6937;56.096;12.664;2023-12-20T00:10:32;13.15;;;2.75;;
13731;SDS011;6937;56.096;12.664;2023-12-20T00:12:57;9.90;;;2.38;;
13731;SDS011;6937;56.096;12.664;2023-12-20T00:15:23;12.38;;;2.35;;
13731;SDS011;6937;56.096;12.664;2023-12-20T00:17:48;9.77;;;2.15;;
13731;SDS011;6937;56.096;12.664;2023-12-20T00:20:14;12.32;;;2.72;;
13731;SDS011;6937;56.096;12.664;2023-12-20T00:22:39;13.02;;;2.60;;
13731;SDS011;6937;56.096;12.664;2023-12-20T00:25:04;14.05;;;2.67;;
13731;SDS011;6937;56.096;12.664;2023-12-20T00:27:30;10.95;;;2.75;;
13731;SDS011;6937;56.096;12.664;2023-12-20T00:29:55;13.88;;;2.47;;
13731;SDS011;6937;56.096;12.664;2023-12-20T00:32:21;13.40;;;2.47;;
13731;SDS011;6937;56.096;12.664;2023-12-20T00:34:46;13.35;;;2.38;;
13731;SDS011;6937;56.096;12.664;2023-12-20T00:37:11;9.10;;;2.05;;
13731;SDS011;6937;56.096;12.664;2023-12-20T00:39:36;13.35;;;2.50;;
13731;SDS011;6937;56.096;12.664;2023-12-20T00:42:02;11.25;;;2.75;;
13731;SDS011;6937;56.096;12.664;2023-12-20T00:44:27;7.70;;;2.35;;
13731;SDS011;6937;56.096;12.664;2023-12-20T00:46:53;13.95;;;2.72;;
13731;SDS011;6937;56.096;12.664;2023-12-20T00:49:18;10.88;;;2.83;;
13731;SDS011;6937;56.096;12.664;2023-12-20T00:51:43;10.43;;;2.45;;
13731;SDS011;6937;56.096;12.664;2023-12-20T00:54:09;11.60;;;2.30;;
13731;SDS011;6937;56.096;12.664;2023-12-20T00:56:34;8.75;;;2.03;;
13731;SDS011;6937;56.096;12.664;2023-12-20T00:59:00;12.15;;;2.30;;
13731;SDS011;6937;56.096;12.664;2023-12-20T01:01:25;9.60;;;2.55;;
13731;SDS011;6937;56.096;12.664;2023-12-20T01:03:51;11.98;;;2.47;;
13731;SDS011;6937;56.096;12.664;2023-12-20T01:06:16;13.73;;;2.58;;
13731;SDS011;6937;56.096;12.664;2023-12-20T01:08:42;12.15;;;2.40;;
13731;SDS011;6937;56.096;12.664;2023-12-20T01:11:07;14.75;;;2.65;;
13731;SDS011;6937;56.096;12.664;2023-12-20T01:13:32;12.13;;;3.28;;
13731;SDS011;6937;56.096;12.664;2023-12-20T01:15:58;12.23;;;2.83;;
13731;SDS011;6937;56.096;12.664;2023-12-20T01:18:23;10.95;;;2.60;;
13731;SDS011;6937;56.096;12.664;2023-12-20T01:20:49;6.53;;;2.08;;
13731;SDS011;6937;56.096;12.664;2023-12-20T01:23:14;12.73;;;2.60;;
13731;SDS011;6937;56.096;12.664;2023-12-20T01:25:39;15.80;;;2.72;;
13731;SDS011;6937;56.096;12.664;2023-12-20T01:28:05;9.77;;;2.00;;
13731;SDS011;6937;56.096;12.664;2023-12-20T01:30:30;14.15;;;2.22;;
13731;SDS011;6937;56.096;12.664;2023-12-20T01:32:56;15.38;;;3.13;;
13731;SDS011;6937;56.096;12.664;2023-12-20T01:35:21;14.27;;;2.45;;
13731;SDS011;6937;56.096;12.664;2023-12-20T01:37:46;7.82;;;1.98;;
13731;SDS011;6937;56.096;12.664;2023-12-20T01:40:12;14.75;;;2.72;;
13731;SDS011;6937;56.096;12.664;2023-12-20T01:42:37;16.10;;;3.05;;
13731;SDS011;6937;56.096;12.664;2023-12-20T01:45:02;11.98;;;2.47;;
13731;SDS011;6937;56.096;12.664;2023-12-20T01:47:28;13.27;;;2.55;;
13731;SDS011;6937;56.096;12.664;2023-12-20T01:49:54;12.50;;;2.35;;
13731;SDS011;6937;56.096;12.664;2023-12-20T01:52:21;9.48;;;1.85;;
13731;SDS011;6937;56.096;12.664;2023-12-20T01:54:47;9.35;;;2.22;;
13731;SDS011;6937;56.096;12.664;2023-12-20T01:57:13;11.63;;;2.20;;
13731;SDS011;6937;56.096;12.664;2023-12-20T01:59:39;13.55;;;2.67;;
13731;SDS011;6937;56.096;12.664;2023-12-20T02:02:05;12.25;;;2.30;;
13731;SDS011;6937;56.096;12.664;2023-12-20T02:04:32;10.18;;;2.30;;
13731;SDS011;6937;56.096;12.664;2023-12-20T02:06:58;10.48;;;1.90;;
13731;SDS011;6937;56.096;12.664;2023-12-20T02:10:34;8.40;;;2.17;;
13731;SDS011;6937;56.096;12.664;2023-12-20T02:12:59;12.50;;;2.55;;
13731;SDS011;6937;56.096;12.664;2023-12-20T02:15:24;10.60;;;2.17;;
13731;SDS011;6937;56.096;12.664;2023-12-20T02:17:50;14.35;;;2.70;;
13731;SDS011;6937;56.096;12.664;2023-12-20T02:20:16;13.35;;;2.38;;
13731;SDS011;6937;56.096;12.664;2023-12-20T02:22:41;9.77;;;1.92;;
13731;SDS011;6937;56.096;12.664;2023-12-20T02:25:07;11.32;;;2.65;;
13731;SDS011;6937;56.096;12.664;2023-12-20T02:27:32;11.32;;;2.47;;
13731;SDS011;6937;56.096;12.664;2023-12-20T02:29:58;13.02;;;2.58;;
13731;SDS011;6937;56.096;12.664;2023-12-20T02:32:24;12.20;;;2.35;;
13731;SDS011;6937;56.096;12.664;2023-12-20T02:34:53;14.10;;;2.75;;
13731;SDS011;6937;56.096;12.664;2023-12-20T02:37:18;11.30;;;2.65;;
13731;SDS011;6937;56.096;12.664;2023-12-20T02:39:44;12.00;;;2.67;;
13731;SDS011;6937;56.096;12.664;2023-12-20T02:42:09;11.57;;;2.45;;
13731;SDS011;6937;56.096;12.664;2023-12-20T02:44:35;12.00;;;2.30;;
13731;SDS011;6937;56.096;12.664;2023-12-20T02:47:01;12.30;;;2.80;;
13731;SDS011;6937;56.096;12.664;2023-12-20T02:49:27;12.27;;;2.45;;
13731;SDS011;6937;56.096;12.664;2023-12-20T02:51:52;11.32;;;2.35;;
13731;SDS011;6937;56.096;12.664;2023-12-20T02:54:18;10.02;;;2.33;;
13731;SDS011;6937;56.096;12.664;2023-12-20T02:56:43;12.02;;;2.75;;
13731;SDS011;6937;56.096;12.664;2023-12-20T02:59:08;10.63;;;2.58;;
13731;SDS011;6937;56.096;12.664;2023-12-20T03:01:34;10.20;;;2.33;;
13731;SDS011;6937;56.096;12.664;2023-12-20T03:04:00;11.77;;;2.47;;
13731;SDS011;6937;56.096;12.664;2023-12-20T03:06:26;13.15;;;2.63;;
13731;SDS011;6937;56.096;12.664;2023-12-20T03:08:52;12.73;;;2.92;;
13731;SDS011;6937;56.096;12.664;2023-12-20T03:11:17;14.27;;;2.97;;
13731;SDS011;6937;56.096;12.664;2023-12-20T03:13:43;12.60;;;2.83;;
13731;SDS011;6937;56.096;12.664;2023-12-20T03:16:12;11.55;;;2.85;;
13731;SDS011;6937;56.096;12.664;2023-12-20T03:18:38;14.70;;;2.58;;
13731;SDS011;6937;56.096;12.664;2023-12-20T03:21:04;15.02;;;2.83;;
13731;SDS011;6937;56.096;12.664;2023-12-20T03:23:30;15.07;;;2.72;;
13731;SDS011;6937;56.096;12.664;2023-12-20T03:25:57;16.80;;;3.00;;
13731;SDS011;6937;56.096;12.664;2023-12-20T03:28:23;14.10;;;2.70;;
13731;SDS011;6937;56.096;12.664;2023-12-20T03:30:49;15.30;;;2.90;;
13731;SDS011;6937;56.096;12.664;2023-12-20T03:33:14;17.23;;;2.35;;
13731;SDS011;6937;56.096;12.664;2023-12-20T03:35:39;12.50;;;2.45;;
13731;SDS011;6937;56.096;12.664;2023-12-20T03:38:05;13.10;;;3.25;;
13731;SDS011;6937;56.096;12.664;2023-12-20T03:40:30;13.32;;;2.90;;
13731;SDS011;6937;56.096;12.664;2023-12-20T03:42:56;13.43;;;2.47;;
13731;SDS011;6937;56.096;12.664;2023-12-20T03:45:21;12.98;;;2.65;;
13731;SDS011;6937;56.096;12.664;2023-12-20T03:47:46;14.85;;;2.45;;
13731;SDS011;6937;56.096;12.664;2023-12-20T03:50:12;11.70;;;2.30;;
13731;SDS011;6937;56.096;12.664;2023-12-20T03:52:38;17.35;;;3.15;;
13731;SDS011;6937;56.096;12.664;2023-12-20T03:55:03;12.30;;;2.50;;
13731;SDS011;6937;56.096;12.664;2023-12-20T03:57:29;15.35;;;2.72;;
13731;SDS011;6937;56.096;12.664;2023-12-20T03:59:55;11.68;;;2.70;;
13731;SDS011;6937;56.096;12.664;2023-12-20T04:02:20;13.32;;;2.20;;
13731;SDS011;6937;56.096;12.664;2023-12-20T04:04:45;14.15;;;2.78;;
13731;SDS011;6937;56.096;12.664;2023-12-20T04:07:11;12.32;;;2.60;;
13731;SDS011;6937;56.096;12.664;2023-12-20T04:09:36;13.77;;;2.35;;
13731;SDS011;6937;56.096;12.664;2023-12-20T04:12:02;9.77;;;2.08;;
13731;SDS011;6937;56.096;12.664;2023-12-20T04:14:28;16.58;;;3.08;;
13731;SDS011;6937;56.096;12.664;2023-12-20T04:16:53;10.73;;;2.22;;
13731;SDS011;6937;56.096;12.664;2023-12-20T04:19:19;10.70;;;2.30;;
13731;SDS011;6937;56.096;12.664;2023-12-20T04:21:44;13.93;;;2.58;;
13731;SDS011;6937;56.096;12.664;2023-12-20T04:24:10;13.52;;;3.60;;
13731;SDS011;6937;56.096;12.664;2023-12-20T04:26:35;14.77;;;2.63;;
13731;SDS011;6937;56.096;12.664;2023-12-20T04:29:01;10.95;;;2.65;;
13731;SDS011;6937;56.096;12.664;2023-12-20T04:31:27;12.32;;;2.70;;
13731;SDS011;6937;56.096;12.664;2023-12-20T04:33:52;13.32;;;2.30;;
13731;SDS011;6937;56.096;12.664;2023-12-20T04:36:17;12.40;;;2.60;;
13731;SDS011;6937;56.096;12.664;2023-12-20T04:38:43;13.23;;;2.63;;
13731;SDS011;6937;56.096;12.664;2023-12-20T04:41:08;16.08;;;2.65;;
13731;SDS011;6937;56.096;12.664;2023-12-20T04:43:34;11.88;;;2.45;;
13731;SDS011;6937;56.096;12.664;2023-12-20T04:45:59;14.63;;;2.85;;
13731;SDS011;6937;56.096;12.664;2023-12-20T04:48:25;12.13;;;2.53;;
13731;SDS011;6937;56.096;12.664;2023-12-20T04:50:50;13.57;;;2.70;;
13731;SDS011;6937;56.096;12.664;2023-12-20T04:53:15;11.20;;;2.75;;
13731;SDS011;6937;56.096;12.664;2023-12-20T04:55:41;12.30;;;2.60;;
13731;SDS011;6937;56.096;12.664;2023-12-20T04:58:06;11.80;;;2.22;;
13731;SDS011;6937;56.096;12.664;2023-12-20T05:00:31;16.02;;;2.83;;
13731;SDS011;6937;56.096;12.664;2023-12-20T05:02:57;11.02;;;2.72;;
13731;SDS011;6937;56.096;12.664;2023-12-20T05:05:22;12.75;;;2.65;;
13731;SDS011;6937;56.096;12.664;2023-12-20T05:07:48;10.82;;;2.40;;
13731;SDS011;6937;56.096;12.664;2023-12-20T05:10:14;11.68;;;2.10;;
13731;SDS011;6937;56.096;12.664;2023-12-20T05:12:39;8.73;;;2.10;;
13731;SDS011;6937;56.096;12.664;2023-12-20T05:15:05;9.60;;;1.80;;
13731;SDS011;6937;56.096;12.664;2023-12-20T05:17:31;9.63;;;1.92;;
13731;SDS011;6937;56.096;12.664;2023-12-20T05:19:57;9.27;;;1.75;;
13731;SDS011;6937;56.096;12.664;2023-12-20T05:22:22;9.73;;;1.70;;
13731;SDS011;6937;56.096;12.664;2023-12-20T05:24:48;6.18;;;1.40;;
13731;SDS011;6937;56.096;12.664;2023-12-20T05:27:13;9.73;;;1.75;;
13731;SDS011;6937;56.096;12.664;2023-12-20T05:29:39;8.57;;;1.73;;
13731;SDS011;6937;56.096;12.664;2023-12-20T05:32:04;8.70;;;1.95;;
13731;SDS011;6937;56.096;12.664;2023-12-20T05:34:30;6.53;;;1.55;;
13731;SDS011;6937;56.096;12.664;2023-12-20T05:36:57;9.30;;;1.80;;
13731;SDS011;6937;56.096;12.664;2023-12-20T05:39:23;9.73;;;1.95;;
13731;SDS011;6937;56.096;12.664;2023-12-20T05:41:49;6.43;;;1.70;;
13731;SDS011;6937;56.096;12.664;2023-12-20T05:44:14;9.73;;;1.98;;
13731;SDS011;6937;56.096;12.664;2023-12-20T05:46:40;8.23;;;1.50;;
13731;SDS011;6937;56.096;12.664;2023-12-20T05:49:05;8.07;;;1.40;;
13731;SDS011;6937;56.096;12.664;2023-12-20T05:51:31;6.68;;;1.20;;
13731;SDS011;6937;56.096;12.664;2023-12-20T05:53:56;6.43;;;1.58;;
13731;SDS011;6937;56.096;12.664;2023-12-20T05:56:22;8.50;;;1.75;;
13731;SDS011;6937;56.096;12.664;2023-12-20T05:58:47;7.85;;;1.67;;
13731;SDS011;6937;56.096;12.664;2023-12-20T06:01:14;7.22;;;1.60;;
13731;SDS011;6937;56.096;12.664;2023-12-20T06:03:42;7.45;;;1.40;;
13731;SDS011;6937;56.096;12.664;2023-12-20T06:06:08;6.75;;;1.65;;
13731;SDS011;6937;56.096;12.664;2023-12-20T06:08:33;6.90;;;1.50;;
13731;SDS011;6937;56.096;12.664;2023-12-20T06:10:59;6.80;;;1.70;;
13731;SDS011;6937;56.096;12.664;2023-12-20T06:13:25;11.98;;;1.63;;
13731;SDS011;6937;56.096;12.664;2023-12-20T06:15:51;8.98;;;1.52;;
13731;SDS011;6937;56.096;12.664;2023-12-20T06:18:17;9.02;;;1.60;;
13731;SDS011;6937;56.096;12.664;2023-12-20T06:20:42;8.32;;;1.60;;
13731;SDS011;6937;56.096;12.664;2023-12-20T06:23:07;6.68;;;1.40;;
13731;SDS011;6937;56.096;12.664;2023-12-20T06:25:33;8.05;;;1.65;;
13731;SDS011;6937;56.096;12.664;2023-12-20T06:27:58;5.07;;;1.58;;
13731;SDS011;6937;56.096;12.664;2023-12-20T06:30:24;10.93;;;1.58;;
13731;SDS011;6937;56.096;12.664;2023-12-20T06:32:50;7.47;;;1.75;;
13731;SDS011;6937;56.096;12.664;2023-12-20T06:35:16;9.90;;;2.00;;
13731;SDS011;6937;56.096;12.664;2023-12-20T06:37:41;10.13;;;1.90;;
13731;SDS011;6937;56.096;12.664;2023-12-20T06:40:08;8.25;;;2.03;;
13731;SDS011;6937;56.096;12.664;2023-12-20T06:42:37;6.78;;;1.80;;
13731;SDS011;6937;56.096;12.664;2023-12-20T06:45:02;9.02;;;1.73;;
13731;SDS011;6937;56.096;12.664;2023-12-20T06:47:28;9.60;;;1.75;;
13731;SDS011;6937;56.096;12.664;2023-12-20T06:49:54;8.10;;;1.95;;
13731;SDS011;6937;56.096;12.664;2023-12-20T06:52:19;10.88;;;1.85;;
13731;SDS011;6937;56.096;12.664;2023-12-20T06:54:44;11.18;;;2.20;;
13731;SDS011;6937;56.096;12.664;2023-12-20T06:57:10;8.00;;;2.00;;
13731;SDS011;6937;56.096;12.664;2023-12-20T06:59:41;10.00;;;1.95;;
13731;SDS011;6937;56.096;12.664;2023-12-20T07:02:08;8.93;;;2.15;;
13731;SDS011;6937;56.096;12.664;2023-12-20T07:04:34;12.63;;;2.22;;
13731;SDS011;6937;56.096;12.664;2023-12-20T07:07:03;8.75;;;1.77;;
13731;SDS011;6937;56.096;12.664;2023-12-20T07:09:29;8.25;;;2.13;;
13731;SDS011;6937;56.096;12.664;2023-12-20T07:11:55;10.15;;;1.90;;
13731;SDS011;6937;56.096;12.664;2023-12-20T07:14:21;11.02;;;2.08;;
13731;SDS011;6937;56.096;12.664;2023-12-20T07:16:46;8.65;;;1.88;;
13731;SDS011;6937;56.096;12.664;2023-12-20T07:19:12;8.70;;;1.45;;
13731;SDS011;6937;56.096;12.664;2023-12-20T07:21:37;8.13;;;1.80;;
13731;SDS011;6937;56.096;12.664;2023-12-20T07:24:03;8.23;;;1.70;;
13731;SDS011;6937;56.096;12.664;2023-12-20T07:26:28;6.15;;;1.52;;
13731;SDS011;6937;56.096;12.664;2023-12-20T07:28:53;10.25;;;1.83;;
13731;SDS011;6937;56.096;12.664;2023-12-20T07:31:19;5.50;;;1.67;;
13731;SDS011;6937;56.096;12.664;2023-12-20T07:33:44;6.30;;;1.52;;
13731;SDS011;6937;56.096;12.664;2023-12-20T07:36:10;7.65;;;1.55;;
13731;SDS011;6937;56.096;12.664;2023-12-20T07:38:36;6.80;;;1.40;;
13731;SDS011;6937;56.096;12.664;2023-12-20T07:41:02;5.47;;;1.23;;
13731;SDS011;6937;56.096;12.664;2023-12-20T07:43:29;6.07;;;1.10;;
13731;SDS011;6937;56.096;12.664;2023-12-20T07:45:54;6.60;;;1.52;;
13731;SDS011;6937;56.096;12.664;2023-12-20T07:48:20;4.75;;;1.25;;
13731;SDS011;6937;56.096;12.664;2023-12-20T07:50:45;3.80;;;0.95;;
13731;SDS011;6937;56.096;12.664;2023-12-20T07:53:11;5.88;;;0.90;;
13731;SDS011;6937;56.096;12.664;2023-12-20T07:55:36;6.97;;;1.00;;
13731;SDS011;6937;56.096;12.664;2023-12-20T07:58:02;5.05;;;1.15;;
13731;SDS011;6937;56.096;12.664;2023-12-20T08:00:27;6.22;;;1.33;;
13731;SDS011;6937;56.096;12.664;2023-12-20T08:02:53;4.28;;;1.00;;
13731;SDS011;6937;56.096;12.664;2023-12-20T08:05:18;3.47;;;0.95;;
13731;SDS011;6937;56.096;12.664;2023-12-20T08:07:44;5.00;;;1.00;;
13731;SDS011;6937;56.096;12.664;2023-12-20T08:10:09;3.30;;;0.90;;
13731;SDS011;6937;56.096;12.664;2023-12-20T08:12:35;3.38;;;0.77;;
13731;SDS011;6937;56.096;12.664;2023-12-20T08:15:01;5.15;;;0.90;;
13731;SDS011;6937;56.096;12.664;2023-12-20T08:17:27;3.00;;;1.17;;
13731;SDS011;6937;56.096;12.664;2023-12-20T08:19:52;2.83;;;0.90;;
13731;SDS011;6937;56.096;12.664;2023-12-20T08:22:18;5.53;;;1.25;;
13731;SDS011;6937;56.096;12.664;2023-12-20T08:24:43;6.53;;;1.73;;
13731;SDS011;6937;56.096;12.664;2023-12-20T08:27:09;3.85;;;0.90;;
13731;SDS011;6937;56.096;12.664;2023-12-20T08:29:34;2.88;;;0.68;;
13731;SDS011;6937;56.096;12.664;2023-12-20T08:32:00;4.25;;;0.93;;
13731;SDS011;6937;56.096;12.664;2023-12-20T08:34:26;5.10;;;1.00;;
13731;SDS011;6937;56.096;12.664;2023-12-20T08:36:52;3.08;;;0.85;;
13731;SDS011;6937;56.096;12.664;2023-12-20T08:39:18;2.65;;;0.85;;
13731;SDS011;6937;56.096;12.664;2023-12-20T08:41:43;3.20;;;0.68;;
13731;SDS011;6937;56.096;12.664;2023-12-20T08:44:09;3.35;;;0.82;;
13731;SDS011;6937;56.096;12.664;2023-12-20T08:46:35;2.83;;;0.70;;
13731;SDS011;6937;56.096;12.664;2023-12-20T08:49:00;4.07;;;0.65;;
13731;SDS011;6937;56.096;12.664;2023-12-20T08:51:26;3.05;;;0.70;;
13731;SDS011;6937;56.096;12.664;2023-12-20T08:53:52;6.40;;;0.90;;
13731;SDS011;6937;56.096;12.664;2023-12-20T08:56:18;2.03;;;0.88;;
13731;SDS011;6937;56.096;12.664;2023-12-20T08:58:44;1.35;;;0.40;;
13731;SDS011;6937;56.096;12.664;2023-12-20T09:01:10;2.42;;;0.70;;
13731;SDS011;6937;56.096;12.664;2023-12-20T09:03:36;4.07;;;0.68;;
13731;SDS011;6937;56.096;12.664;2023-12-20T09:06:01;2.80;;;0.75;;
13731;SDS011;6937;56.096;12.664;2023-12-20T09:08:27;1.98;;;0.50;;
13731;SDS011;6937;56.096;12.664;2023-12-20T09:10:52;2.83;;;0.60;;
13731;SDS011;6937;56.096;12.664;2023-12-20T09:13:18;2.75;;;0.60;;
13731;SDS011;6937;56.096;12.664;2023-12-20T09:15:43;2.60;;;0.63;;
13731;SDS011;6937;56.096;12.664;2023-12-20T09:18:09;2.53;;;0.70;;
13731;SDS011;6937;56.096;12.664;2023-12-20T09:20:34;2.30;;;0.57;;
13731;SDS011;6937;56.096;12.664;2023-12-20T09:23:00;2.03;;;0.60;;
13731;SDS011;6937;56.096;12.664;2023-12-20T09:25:25;2.05;;;0.57;;
13731;SDS011;6937;56.096;12.664;2023-12-20T09:27:51;3.17;;;1.00;;
13731;SDS011;6937;56.096;12.664;2023-12-20T09:30:17;2.70;;;0.82;;
13731;SDS011;6937;56.096;12.664;2023-12-20T09:32:43;1.65;;;0.50;;
13731;SDS011;6937;56.096;12.664;2023-12-20T09:35:09;3.63;;;0.70;;
13731;SDS011;6937;56.096;12.664;2023-12-20T09:37:34;4.65;;;1.05;;
13731;SDS011;6937;56.096;12.664;2023-12-20T09:40:00;2.70;;;0.50;;
13731;SDS011;6937;56.096;12.664;2023-12-20T09:42:35;5.07;;;0.63;;
13731;SDS011;6937;56.096;12.664;2023-12-20T09:45:07;4.13;;;0.73;;
13731;SDS011;6937;56.096;12.664;2023-12-20T09:47:35;3.92;;;1.00;;
13731;SDS011;6937;56.096;12.664;2023-12-20T09:50:01;4.68;;;1.02;;
13731;SDS011;6937;56.096;12.664;2023-12-20T09:52:27;6.05;;;1.15;;
13731;SDS011;6937;56.096;12.664;2023-12-20T09:54:54;4.90;;;0.80;;
13731;SDS011;6937;56.096;12.664;2023-12-20T09:57:22;4.38;;;0.90;;
13731;SDS011;6937;56.096;12.664;2023-12-20T09:59:47;3.50;;;0.80;;
13731;SDS011;6937;56.096;12.664;2023-12-20T10:02:13;3.78;;;1.00;;
13731;SDS011;6937;56.096;12.664;2023-12-20T10:04:41;5.93;;;1.08;;
13731;SDS011;6937;56.096;12.664;2023-12-20T10:07:12;6.15;;;1.33;;
13731;SDS011;6937;56.096;12.664;2023-12-20T10:09:37;7.50;;;0.90;;
13731;SDS011;6937;56.096;12.664;2023-12-20T10:12:03;3.17;;;0.88;;
13731;SDS011;6937;56.096;12.664;2023-12-20T10:14:30;3.55;;;0.80;;
13731;SDS011;6937;56.096;12.664;2023-12-20T10:17:03;4.55;;;1.10;;
13731;SDS011;6937;56.096;12.664;2023-12-20T10:19:30;4.55;;;1.20;;
13731;SDS011;6937;56.096;12.664;2023-12-20T10:21:57;3.67;;;1.10;;
13731;SDS011;6937;56.096;12.664;2023-12-20T10:24:24;3.05;;;1.00;;
13731;SDS011;6937;56.096;12.664;2023-12-20T10:27:00;6.15;;;1.00;;
13731;SDS011;6937;56.096;12.664;2023-12-20T10:29:31;5.35;;;1.20;;
13731;SDS011;6937;56.096;12.664;2023-12-20T10:31:58;4.82;;;1.38;;
13731;SDS011;6937;56.096;12.664;2023-12-20T10:34:23;6.20;;;1.10;;
13731;SDS011;6937;56.096;12.664;2023-12-20T10:36:49;5.63;;;1.00;;
13731;SDS011;6937;56.096;12.664;2023-12-20T10:39:15;4.47;;;1.10;;
13731;SDS011;6937;56.096;12.664;2023-12-20T10:41:42;7.80;;;1.42;;
13731;SDS011;6937;56.096;12.664;2023-12-20T10:44:09;5.97;;;1.25;;
13731;SDS011;6937;56.096;12.664;2023-12-20T10:46:35;4.75;;;1.38;;
13731;SDS011;6937;56.096;12.664;2023-12-20T10:49:03;10.02;;;1.52;;
13731;SDS011;6937;56.096;12.664;2023-12-20T10:51:30;5.15;;;1.40;;
13731;SDS011;6937;56.096;12.664;2023-12-20T10:53:56;4.95;;;1.38;;
13731;SDS011;6937;56.096;12.664;2023-12-20T10:56:22;6.03;;;1.40;;
13731;SDS011;6937;56.096;12.664;2023-12-20T10:58:48;8.70;;;1.95;;
13731;SDS011;6937;56.096;12.664;2023-12-20T11:01:15;7.78;;;1.75;;
13731;SDS011;6937;56.096;12.664;2023-12-20T11:03:50;7.90;;;1.70;;
13731;SDS011;6937;56.096;12.664;2023-12-20T11:09:28;9.43;;;1.85;;
13731;SDS011;6937;56.096;12.664;2023-12-20T11:12:16;7.65;;;1.58;;
13731;SDS011;6937;56.096;12.664;2023-12-20T11:14:47;4.70;;;0.82;;
13731;SDS011;6937;56.096;12.664;2023-12-20T11:17:14;10.40;;;1.67;;
13731;SDS011;6937;56.096;12.664;2023-12-20T11:22:26;3.80;;;1.20;;
13731;SDS011;6937;56.096;12.664;2023-12-20T11:24:59;6.38;;;1.15;;
13731;SDS011;6937;56.096;12.664;2023-12-20T11:27:29;8.20;;;1.67;;
13731;SDS011;6937;56.096;12.664;2023-12-20T11:29:56;10.05;;;1.50;;
13731;SDS011;6937;56.096;12.664;2023-12-20T11:37:35;9.43;;;1.65;;
13731;SDS011;6937;56.096;12.664;2023-12-20T11:40:03;10.77;;;2.30;;
13731;SDS011;6937;56.096;12.664;2023-12-20T11:42:50;9.38;;;1.55;;
13731;SDS011;6937;56.096;12.664;2023-12-20T11:45:18;12.40;;;2.10;;
13731;SDS011;6937;56.096;12.664;2023-12-20T11:47:47;9.43;;;1.60;;
13731;SDS011;6937;56.096;12.664;2023-12-20T11:50:19;13.00;;;2.55;;
13731;SDS011;6937;56.096;12.664;2023-12-20T11:52:45;7.43;;;2.05;;
13731;SDS011;6937;56.096;12.664;2023-12-20T11:55:11;7.97;;;2.15;;
13731;SDS011;6937;56.096;12.664;2023-12-20T11:57:36;10.90;;;1.98;;
13731;SDS011;6937;56.096;12.664;2023-12-20T12:00:02;5.18;;;1.52;;
13731;SDS011;6937;56.096;12.664;2023-12-20T12:02:29;11.55;;;2.08;;
13731;SDS011;6937;56.096;12.664;2023-12-20T12:04:55;10.88;;;1.98;;
13731;SDS011;6937;56.096;12.664;2023-12-20T12:07:21;7.03;;;1.58;;
13731;SDS011;6937;56.096;12.664;2023-12-20T12:09:47;9.50;;;1.65;;
13731;SDS011;6937;56.096;12.664;2023-12-20T12:12:13;8.05;;;1.60;;
13731;SDS011;6937;56.096;12.664;2023-12-20T12:14:39;10.75;;;1.90;;
13731;SDS011;6937;56.096;12.664;2023-12-20T12:17:09;8.65;;;1.85;;
13731;SDS011;6937;56.096;12.664;2023-12-20T12:19:42;10.75;;;1.90;;
13731;SDS011;6937;56.096;12.664;2023-12-20T12:22:10;7.88;;;1.67;;
13731;SDS011;6937;56.096;12.664;2023-12-20T12:24:41;8.43;;;1.92;;
13731;SDS011;6937;56.096;12.664;2023-12-20T12:27:07;7.65;;;1.88;;
13731;SDS011;6937;56.096;12.664;2023-12-20T12:29:33;11.55;;;2.38;;
13731;SDS011;6937;56.096;12.664;2023-12-20T12:32:05;9.57;;;1.65;;
13731;SDS011;6937;56.096;12.664;2023-12-20T12:34:32;10.32;;;1.88;;
13731;SDS011;6937;56.096;12.664;2023-12-20T12:36:57;10.57;;;2.17;;
13731;SDS011;6937;56.096;12.664;2023-12-20T12:39:23;6.80;;;1.90;;
13731;SDS011;6937;56.096;12.664;2023-12-20T12:41:52;5.35;;;1.90;;
13731;SDS011;6937;56.096;12.664;2023-12-20T12:44:18;8.52;;;2.00;;
13731;SDS011;6937;56.096;12.664;2023-12-20T12:46:45;8.23;;;2.08;;
13731;SDS011;6937;56.096;12.664;2023-12-20T12:49:11;7.80;;;1.77;;
13731;SDS011;6937;56.096;12.664;2023-12-20T12:51:37;7.45;;;1.60;;
13731;SDS011;6937;56.096;12.664;2023-12-20T12:54:03;5.20;;;1.65;;
13731;SDS011;6937;56.096;12.664;2023-12-20T12:56:28;6.47;;;1.65;;
13731;SDS011;6937;56.096;12.664;2023-12-20T12:58:54;5.40;;;1.58;;
13731;SDS011;6937;56.096;12.664;2023-12-20T13:01:20;8.35;;;1.60;;
13731;SDS011;6937;56.096;12.664;2023-12-20T13:03:45;4.45;;;1.10;;
13731;SDS011;6937;56.096;12.664;2023-12-20T13:06:12;5.80;;;1.92;;
13731;SDS011;6937;56.096;12.664;2023-12-20T13:08:37;8.20;;;1.60;;
13731;SDS011;6937;56.096;12.664;2023-12-20T13:11:02;9.63;;;1.73;;
13731;SDS011;6937;56.096;12.664;2023-12-20T13:13:29;7.25;;;1.70;;
13731;SDS011;6937;56.096;12.664;2023-12-20T13:15:55;5.05;;;1.52;;
13731;SDS011;6937;56.096;12.664;2023-12-20T13:18:21;8.45;;;2.08;;
13731;SDS011;6937;56.096;12.664;2023-12-20T13:20:47;10.85;;;2.63;;
13731;SDS011;6937;56.096;12.664;2023-12-20T13:23:13;8.05;;;1.80;;
13731;SDS011;6937;56.096;12.664;2023-12-20T13:25:39;6.75;;;2.00;;
13731;SDS011;6937;56.096;12.664;2023-12-20T13:28:05;7.70;;;2.75;;
13731;SDS011;6937;56.096;12.664;2023-12-20T13:30:31;11.35;;;2.80;;
13731;SDS011;6937;56.096;12.664;2023-12-20T13:32:56;6.85;;;2.08;;
13731;SDS011;6937;56.096;12.664;2023-12-20T13:35:22;11.18;;;2.42;;
13731;SDS011;6937;56.096;12.664;2023-12-20T13:37:47;14.77;;;2.88;;
13731;SDS011;6937;56.096;12.664;2023-12-20T13:40:13;5.78;;;2.78;;
13731;SDS011;6937;56.096;12.664;2023-12-20T13:42:39;9.25;;;2.97;;
13731;SDS011;6937;56.096;12.664;2023-12-20T13:45:05;9.02;;;2.65;;
13731;SDS011;6937;56.096;12.664;2023-12-20T13:47:31;10.45;;;2.97;;
13731;SDS011;6937;56.096;12.664;2023-12-20T13:49:57;9.40;;;2.75;;
13731;SDS011;6937;56.096;12.664;2023-12-20T13:52:22;10.52;;;2.47;;
13731;SDS011;6937;56.096;12.664;2023-12-20T13:54:48;7.63;;;2.53;;
13731;SDS011;6937;56.096;12.664;2023-12-20T13:57:13;10.05;;;2.60;;
13731;SDS011;6937;56.096;12.664;2023-12-20T13:59:39;11.18;;;3.20;;
13731;SDS011;6937;56.096;12.664;2023-12-20T14:02:04;7.95;;;2.55;;
13731;SDS011;6937;56.096;12.664;2023-12-20T14:04:30;10.23;;;2.45;;
13731;SDS011;6937;56.096;12.664;2023-12-20T14:06:56;8.18;;;3.00;;
13731;SDS011;6937;56.096;12.664;2023-12-20T14:09:22;6.95;;;2.42;;
13731;SDS011;6937;56.096;12.664;2023-12-20T14:11:47;7.75;;;2.97;;
13731;SDS011;6937;56.096;12.664;2023-12-20T14:14:13;8.15;;;2.53;;
13731;SDS011;6937;56.096;12.664;2023-12-20T14:16:38;9.05;;;2.33;;
13731;SDS011;6937;56.096;12.664;2023-12-20T14:19:04;9.75;;;2.50;;
13731;SDS011;6937;56.096;12.664;2023-12-20T14:21:31;8.43;;;2.13;;
13731;SDS011;6937;56.096;12.664;2023-12-20T14:23:56;12.27;;;3.05;;
13731;SDS011;6937;56.096;12.664;2023-12-20T14:26:22;8.90;;;2.50;;
13731;SDS011;6937;56.096;12.664;2023-12-20T14:28:47;8.20;;;2.30;;
13731;SDS011;6937;56.096;12.664;2023-12-20T14:31:13;7.25;;;2.30;;
13731;SDS011;6937;56.096;12.664;2023-12-20T14:33:38;8.40;;;2.65;;
13731;SDS011;6937;56.096;12.664;2023-12-20T14:36:04;8.70;;;2.60;;
13731;SDS011;6937;56.096;12.664;2023-12-20T14:38:31;7.30;;;2.90;;
13731;SDS011;6937;56.096;12.664;2023-12-20T14:40:56;5.57;;;2.10;;
13731;SDS011;6937;56.096;12.664;2023-12-20T14:43:22;7.65;;;2.40;;
13731;SDS011;6937;56.096;12.664;2023-12-20T14:45:48;9.43;;;2.55;;
13731;SDS011;6937;56.096;12.664;2023-12-20T14:48:15;6.63;;;2.85;;